Mason, New Hampshire
Current Conditions -  °F | °C
As of 8:51 PM on Friday 19 Dec 2014 (Local Time) from KASH Reporting Station
Clear Clear  
Wind Chill: 21°   Ceiling: Unl
Heat Index: 28°   Visibility: 10mi
Dew Point: 21°   Wind: 7mph
Humidity: 75%   Direction: 330°NNW
Pressure: 30.11"   Gusts: NA
Location:  42.7496°N, 71.7606°W
Report Text: KASH 200151Z 33006KT 10SM CLR M02/M06 A3011 RMK AO2 T10221061 SLP455
Loading
Personal Weather Stations






























Interactive Weather Map New forecast layout! Learn more

10-Day Weather Forecast

Advertisements
Track Severe Weather on mobile